^^
Meteo Knjazevac Station Historical Data
Daily Summary for August 12, 2022 Units:  English    Metric   Both
Daily Weekly Monthly Yearly Custom
  High: Low: Average:
Temperature: 87.6 °F 55.2 °F 71.2 °F
Dew Point: 69.2 °F 54.9 °F 62 °F
Humidity: 99% 47.9% 77%
Wind Speed: 11.7mph 0mph 3.7mph
Wind Gust: 13mph - -
Wind- - South
Pressure: 30.09 in 29.96 in -
Precipitation: 0.00 in    
Historical Graphs
 
 
Tabular Data for August 12, 2022
Time Temperature Dew Point Pressure Wind Wind Speed Wind Gust Humidity Rainfall Rate (Hourly) solar Conditions
00:04 61.9 °F 60.4 °F 30.08 in WSW 1 mph 2 mph 95% 0.00 in 0 W/m2
00:09 61.9 °F 60.4 °F 30.08 in Calm   2 mph 95% 0.00 in 0 W/m2
00:14 61.7 °F 60.3 °F 30.08 in Calm     95% 0.00 in 0 W/m2
00:19 61.6 °F 60.2 °F 30.08 in North 0.3 mph   95% 0.00 in 0 W/m2
00:22 61.5 °F 60.2 °F 30.08 in Calm   1 mph 95.6% 0.00 in 0 W/m2
00:28 61.3 °F 60.2 °F 30.08 in West 0.7 mph 0.2 mph 96% 0.00 in 0 W/m2
00:33 61.1 °F 59.9 °F 30.08 in Calm     96% 0.00 in 0 W/m2
00:39 61 °F 60 °F 30.08 in Calm     96.8% 0.00 in 0 W/m2
00:44 60.9 °F 60 °F 30.08 in Calm     97.1% 0.00 in 0 W/m2
00:49 60.8 °F 60.2 °F 30.08 in Calm     98% 0.00 in 0 W/m2
00:54 60.6 °F 60.1 °F 30.08 in NW 0.9 mph 0.7 mph 98% 0.00 in 0 W/m2
00:59 60.6 °F 60.1 °F 30.08 in NNW 0.6 mph 2 mph 98% 0.00 in 0 W/m2
01:04 60.4 °F 59.9 °F 30.08 in Calm   1 mph 98% 0.00 in 0 W/m2
01:09 60.3 °F 59.7 °F 30.08 in Calm     98% 0.00 in 0 W/m2
01:14 60.2 °F 59.6 °F 30.08 in North 0.5 mph 0.2 mph 98% 0.00 in 0 W/m2
01:18 60.1 °F 59.5 °F 30.08 in NNW 1.6 mph 1.3 mph 98% 0.00 in 0 W/m2
01:24 60 °F 59.4 °F 30.08 in West 1.7 mph 2 mph 98% 0.00 in 0 W/m2
01:29 59.9 °F 59.3 °F 30.08 in SW 0.7 mph 2 mph 98% 0.00 in 0 W/m2
01:34 59.8 °F 59.3 °F 30.08 in West 0.4 mph 1 mph 98.3% 0.00 in 0 W/m2
01:39 59.7 °F 59.3 °F 30.08 in West 1.5 mph 1 mph 98.8% 0.00 in 0 W/m2
01:44 59.6 °F 59.2 °F 30.08 in WSW 2.2 mph 2 mph 98.3% 0.00 in 0 W/m2
01:48 59.5 °F 59.3 °F 30.08 in NNE 2 mph 2 mph 99% 0.00 in 0 W/m2
01:54 59.5 °F 59.3 °F 30.08 in East 2.4 mph 3 mph 99% 0.00 in 0 W/m2
01:59 59.4 °F 59.1 °F 30.08 in SSE 0.9 mph 2 mph 99% 0.00 in 0 W/m2
02:04 59.4 °F 59.1 °F 30.08 in Calm     99% 0.00 in 0 W/m2
02:09 59.4 °F 59 °F 30.08 in SW 0.8 mph 0.7 mph 98.8% 0.00 in 0 W/m2
02:14 59.1 °F 58.5 °F 30.08 in Calm   1 mph 98% 0.00 in 0 W/m2
02:18 58.9 °F 58.5 °F 30.09 in SW 0.5 mph 0.7 mph 98.7% 0.00 in 0 W/m2
02:24 58.7 °F 58.5 °F 30.08 in WSW 1.5 mph 2 mph 99% 0.00 in 0 W/m2
02:29 58.6 °F 58.4 °F 30.09 in WSW 1.4 mph 2 mph 99% 0.00 in 0 W/m2
02:34 58.5 °F 58.3 °F 30.09 in West 1.3 mph 2 mph 99% 0.00 in 0 W/m2
02:39 58.4 °F 58.1 °F 30.09 in WNW 1.1 mph 2 mph 99% 0.00 in 0 W/m2
02:44 58.3 °F 58 °F 30.09 in NW 0.6 mph 1 mph 99% 0.00 in 0 W/m2
02:49 58.2 °F 57.9 °F 30.09 in NW 1.4 mph 1.3 mph 99% 0.00 in 0 W/m2
02:54 58.1 °F 57.8 °F 30.09 in WNW 0.8 mph 2 mph 99% 0.00 in 0 W/m2
02:59 57.9 °F 57.6 °F 30.09 in WNW 1.1 mph 0.7 mph 99% 0.00 in 0 W/m2
03:04 57.8 °F 57.6 °F 30.09 in WNW 1.6 mph 1.3 mph 99% 0.00 in 0 W/m2
03:09 57.7 °F 57.5 °F 30.09 in West 0.4 mph 2 mph 99% 0.00 in 0 W/m2
03:14 57.6 °F 57.3 °F 30.09 in Calm     99% 0.00 in 0 W/m2
03:19 57.6 °F 57.3 °F 30.09 in Calm     99% 0.00 in 0 W/m2
03:24 57.4 °F 57.1 °F 30.09 in WSW 0.8 mph 0.2 mph 99% 0.00 in 0 W/m2
03:29 57.3 °F 57 °F 30.09 in WSW 0.4 mph 1 mph 99% 0.00 in 0 W/m2
03:34 57.2 °F 56.9 °F 30.09 in West 1.1 mph 1.1 mph 99% 0.00 in 0 W/m2
03:39 57 °F 56.7 °F 30.09 in WNW 1.1 mph 1 mph 99% 0.00 in 0 W/m2
03:44 57 °F 56.7 °F 30.09 in WNW 1.3 mph 1.1 mph 99% 0.00 in 0 W/m2
03:49 56.8 °F 56.6 °F 30.09 in NW 1 mph 2 mph 99% 0.00 in 0 W/m2
03:53 56.8 °F 56.6 °F 30.09 in NNW 1.4 mph 0.7 mph 99% 0.00 in 0 W/m2
03:59 56.8 °F 56.6 °F 30.09 in NW 1.1 mph 2 mph 99% 0.00 in 0 W/m2
04:04 56.8 °F 56.6 °F 30.09 in WNW 1.5 mph 1.3 mph 99% 0.00 in 0 W/m2
04:09 56.8 °F 56.6 °F 30.08 in WNW 2 mph 2 mph 99% 0.00 in 0 W/m2
04:14 56.8 °F 56.6 °F 30.08 in NW 1.7 mph 2 mph 99% 0.00 in 0 W/m2
04:19 56.8 °F 56.6 °F 30.08 in NNW 1.9 mph 2 mph 99% 0.00 in 0 W/m2
04:24 56.8 °F 56.6 °F 30.08 in North 1.1 mph 2 mph 99% 0.00 in 0 W/m2
04:29 56.8 °F 56.6 °F 30.08 in NNW 2.2 mph 2 mph 99% 0.00 in 0 W/m2
04:34 56.8 °F 56.5 °F 30.08 in West 0.4 mph 2 mph 99% 0.00 in 0 W/m2
04:39 56.7 °F 56.4 °F 30.08 in WNW 0.5 mph 1 mph 99% 0.00 in 0 W/m2
04:44 56.5 °F 56.2 °F 30.08 in WNW 0.9 mph 1.3 mph 99% 0.00 in 0 W/m2
04:49 56.4 °F 56.1 °F 30.08 in NW 1.7 mph 2 mph 99% 0.00 in 0 W/m2
04:54 56.5 °F 56.2 °F 30.08 in Calm     99% 0.00 in 0 W/m2
04:59 56.4 °F 56.1 °F 30.08 in Calm     99% 0.00 in 0 W/m2
05:04 56.3 °F 56 °F 30.08 in North 0.3 mph 0.2 mph 99% 0.00 in 0 W/m2
05:09 56.3 °F 56 °F 30.08 in North 0.3 mph 1 mph 99% 0.00 in 0 W/m2
05:14 56.3 °F 56 °F 30.08 in Calm     99% 0.00 in 0 W/m2
05:19 56.1 °F 55.8 °F 30.08 in Calm     99% 0.00 in 0 W/m2
05:24 56 °F 55.7 °F 30.08 in Calm     99% 0.00 in 1 W/m2
05:29 55.9 °F 55.6 °F 30.08 in Calm     99% 0.00 in 3 W/m2
05:34 55.8 °F 55.5 °F 30.08 in Calm     99% 0.00 in 5 W/m2
05:39 55.8 °F 55.5 °F 30.08 in North 0.4 mph 0.4 mph 99% 0.00 in 8 W/m2
05:44 55.6 °F 55.3 °F 30.08 in NNW 1.1 mph 1.1 mph 99% 0.00 in 10 W/m2
05:49 55.6 °F 55.3 °F 30.08 in NNW 1.1 mph 1 mph 99% 0.00 in 16 W/m2
05:54 55.6 °F 55.3 °F 30.08 in North 0.4 mph 0.9 mph 99% 0.00 in 22 W/m2
05:59 55.5 °F 55.2 °F 30.08 in NNW 1.1 mph 1 mph 99% 0.00 in 26 W/m2
06:04 55.4 °F 55.1 °F 30.09 in WNW 0.5 mph 1 mph 99% 0.00 in 34 W/m2
06:09 55.2 °F 54.9 °F 30.09 in Calm   1 mph 99% 0.00 in 40 W/m2
06:14 55.2 °F 54.9 °F 30.09 in Calm     99% 0.00 in 42 W/m2
06:19 55.4 °F 55.1 °F 30.09 in Calm     99% 0.00 in 57 W/m2
06:24 55.6 °F 55.3 °F 30.09 in Calm     99% 0.00 in 70 W/m2
06:29 55.6 °F 55.3 °F 30.09 in North 0.4 mph 0.2 mph 99% 0.00 in 71 W/m2
06:34 55.8 °F 55.5 °F 30.09 in NNW 0.7 mph 1 mph 99% 0.00 in 76 W/m2
06:39 55.9 °F 55.6 °F 30.09 in NNW 0.7 mph 1 mph 99% 0.00 in 90 W/m2
06:44 55.9 °F 55.7 °F 30.09 in North 0.8 mph 1 mph 99% 0.00 in 112 W/m2
06:49 56.1 °F 55.8 °F 30.09 in Calm   2 mph 99% 0.00 in 137 W/m2
06:54 56.4 °F 56.1 °F 30.09 in NNW 1 mph 0.7 mph 99% 0.00 in 154 W/m2
06:59 56.6 °F 56.3 °F 30.09 in WNW 1 mph 1 mph 99% 0.00 in 162 W/m2
07:04 56.8 °F 56.6 °F 30.09 in West 0.5 mph 1 mph 99% 0.00 in 173 W/m2
07:09 56.9 °F 56.7 °F 30.09 in WSW 0.5 mph 1 mph 99% 0.00 in 191 W/m2
07:14 57.3 °F 57 °F 30.09 in WSW 1.5 mph 1.6 mph 99% 0.00 in 201 W/m2
07:19 57.5 °F 57.2 °F 30.09 in WSW 2.2 mph 2 mph 99% 0.00 in 200 W/m2
07:24 57.7 °F 57.4 °F 30.09 in West 1.1 mph 2 mph 99% 0.00 in 161 W/m2
07:28 57.9 °F 57.6 °F 30.09 in WNW 1.2 mph 1 mph 99% 0.00 in 143 W/m2
07:34 58.2 °F 57.8 °F 30.09 in NW 2.1 mph 2 mph 99% 0.00 in 137 W/m2
07:39 58.4 °F 58.1 °F 30.09 in NW 0.4 mph 2 mph 99% 0.00 in 162 W/m2
07:44 58.7 °F 58.4 °F 30.09 in NW 1.5 mph 1.1 mph 99% 0.00 in 189 W/m2
07:49 59 °F 58.7 °F 30.09 in WSW 1.8 mph 2 mph 99% 0.00 in 201 W/m2
07:54 59.4 °F 59.2 °F 30.09 in SSW 2 mph 2 mph 99% 0.00 in 233 W/m2
07:59 59.7 °F 59.4 °F 30.09 in SW 2.1 mph 2 mph 99% 0.00 in 273 W/m2
08:04 59.9 °F 59.6 °F 30.09 in SW 2.2 mph 2 mph 99% 0.00 in 280 W/m2
08:09 60.2 °F 59.9 °F 30.09 in WSW 2 mph 2 mph 99% 0.00 in 301 W/m2
08:14 60.4 °F 60.2 °F 30.09 in West 1.8 mph 2 mph 99% 0.00 in 311 W/m2
08:19 60.9 °F 60.6 °F 30.09 in WSW 2.1 mph 2 mph 99% 0.00 in 298 W/m2
08:24 61.3 °F 61 °F 30.09 in SW 1.5 mph 2 mph 99% 0.00 in 294 W/m2
08:29 61.8 °F 61.4 °F 30.09 in SW 1.2 mph 2 mph 98.8% 0.00 in 318 W/m2
08:34 62.5 °F 61.6 °F 30.09 in SW 1.1 mph 1 mph 97% 0.00 in 351 W/m2
08:39 63.2 °F 62 °F 30.09 in West 1.7 mph 1.3 mph 95.9% 0.00 in 406 W/m2
08:42 64 °F 62.5 °F 30.09 in SW 1.5 mph 2 mph 95% 0.00 in 406 W/m2
08:49 64.7 °F 62.7 °F 30.09 in SSW 2.7 mph 2.2 mph 93.4% 0.00 in 399 W/m2
08:54 64.9 °F 62.4 °F 30.09 in South 1.7 mph 3 mph 91.5% 0.00 in 469 W/m2
08:59 65.5 °F 62.8 °F 30.09 in WSW 1.9 mph 2 mph 91% 0.00 in 469 W/m2
09:04 66.2 °F 63.4 °F 30.09 in SW 2 mph 2 mph 90.5% 0.00 in 416 W/m2
09:09 66.9 °F 63.7 °F 30.09 in SW 1.7 mph 2 mph 89.5% 0.00 in 451 W/m2
09:14 67.4 °F 63.8 °F 30.09 in West 2.3 mph 3 mph 88.1% 0.00 in 527 W/m2
09:19 68.3 °F 64 °F 30.09 in SW 2.4 mph 1.8 mph 86% 0.00 in 607 W/m2
09:24 69.3 °F 64.5 °F 30.09 in South 4.4 mph 3.4 mph 84.7% 0.00 in 607 W/m2
09:29 69.5 °F 64.8 °F 30.08 in SSE 4.5 mph 5 mph 84.9% 0.00 in 541 W/m2
09:34 69.8 °F 64.8 °F 30.08 in SSE 3 mph 5 mph 84% 0.00 in 503 W/m2
09:38 70.1 °F 64.9 °F 30.08 in SSW 3 mph 4 mph 83.7% 0.00 in 503 W/m2
09:44 70.3 °F 65.3 °F 30.08 in SSW 3.4 mph 3 mph 84.2% 0.00 in 568 W/m2
09:49 70.7 °F 65.1 °F 30.08 in SW 3.9 mph 5 mph 82.4% 0.00 in 672 W/m2
09:54 71.2 °F 65.5 °F 30.08 in North 6.2 mph 5 mph 82.3% 0.00 in 700 W/m2
09:59 71.7 °F 65.4 °F 30.08 in NE 3.4 mph 7 mph 80.6% 0.00 in 664 W/m2
10:04 72.1 °F 65.7 °F 30.08 in NNE 6.2 mph 4.5 mph 80.4% 0.00 in 770 W/m2
10:09 72.8 °F 66.3 °F 30.08 in NNE 5.8 mph 3.8 mph 80% 0.00 in 769 W/m2
10:14 73.5 °F 66.7 °F 30.07 in NNE 6.7 mph 9 mph 79.1% 0.00 in 744 W/m2
10:19 74.1 °F 66.6 °F 30.07 in NNE 7.7 mph 9 mph 77.5% 0.00 in 758 W/m2
10:24 74 °F 66.4 °F 30.07 in NE 7.5 mph 9 mph 77.2% 0.00 in 843 W/m2
10:29 74.4 °F 66.6 °F 30.07 in NE 7 mph 8 mph 76.7% 0.00 in 861 W/m2
10:34 75.1 °F 67.4 °F 30.07 in NE 6.9 mph 4.5 mph 77% 0.00 in 808 W/m2
10:39 75.7 °F 67.2 °F 30.07 in NNE 5.4 mph 4.9 mph 74.9% 0.00 in 732 W/m2
10:44 75.5 °F 66.6 °F 30.07 in NNE 5.8 mph 7 mph 74.1% 0.00 in 743 W/m2
10:49 75.6 °F 66.6 °F 30.07 in ENE 6.6 mph 7 mph 73.8% 0.00 in 615 W/m2
10:53 75.7 °F 66.8 °F 30.06 in ENE 7 mph 8 mph 73.9% 0.00 in 678 W/m2
10:59 75.7 °F 66.6 °F 30.06 in ENE 4.7 mph 8 mph 73.4% 0.00 in 749 W/m2
11:04 76.1 °F 67.2 °F 30.06 in ENE 4.3 mph 6 mph 74.1% 0.00 in 563 W/m2
11:09 76.8 °F 67.9 °F 30.06 in NNE 3.6 mph 5 mph 74.2% 0.00 in 453 W/m2
11:14 76.9 °F 67.5 °F 30.06 in NNE 3.7 mph 5 mph 72.6% 0.00 in 861 W/m2
11:19 77.3 °F 68.3 °F 30.06 in SE 3.8 mph 5 mph 73.9% 0.00 in 861 W/m2
11:24 78.1 °F 68.8 °F 30.06 in SSW 4.2 mph 6 mph 73.3% 0.00 in 802 W/m2
11:29 78.9 °F 69.2 °F 30.06 in SW 3.7 mph 5 mph 72.3% 0.00 in 759 W/m2
11:34 79.1 °F 68.9 °F 30.06 in WSW 4.1 mph 5 mph 71.3% 0.00 in 877 W/m2
11:39 79.2 °F 68.6 °F 30.06 in SW 4.3 mph 5 mph 70.1% 0.00 in 875 W/m2
11:44 79.5 °F 69.1 °F 30.05 in WNW 5.6 mph 6 mph 70.4% 0.00 in 720 W/m2
11:49 79.7 °F 68.9 °F 30.05 in North 5.6 mph 7 mph 69.6% 0.00 in 679 W/m2
11:54 80 °F 68.7 °F 30.05 in NNE 5.8 mph 6 mph 68.8% 0.00 in 749 W/m2
11:59 80.1 °F 68.1 °F 30.05 in NE 6.8 mph 4.7 mph 67.2% 0.00 in 636 W/m2
12:03 80.1 °F 68.5 °F 30.05 in ENE 4.7 mph 8 mph 68% 0.00 in 945 W/m2
12:09 80.7 °F 68.8 °F 30.04 in ENE 7.4 mph 7 mph 67.2% 0.00 in 1022 W/m2
12:14 81.4 °F 68.4 °F 30.04 in ENE 6.7 mph 10 mph 64.9% 0.00 in 1016 W/m2
12:19 81.9 °F 68 °F 30.04 in ENE 5.1 mph 8 mph 62.9% 0.00 in 995 W/m2
12:24 81.8 °F 67.3 °F 30.04 in ENE 6.5 mph 7 mph 61.8% 0.00 in 998 W/m2
12:29 82 °F 68.1 °F 30.04 in ENE 9.1 mph 10 mph 62.8% 0.00 in 1019 W/m2
12:34 82.3 °F 67.4 °F 30.03 in NE 8.7 mph 10 mph 60.8% 0.00 in 1002 W/m2
12:39 82.9 °F 68.2 °F 30.03 in NE 7.4 mph 2.2 mph 61.2% 0.00 in 989 W/m2
12:44 83.6 °F 68.2 °F 30.03 in NNE 7.5 mph 7 mph 60% 0.00 in 965 W/m2
12:49 83.9 °F 67.7 °F 30.03 in NNE 9.6 mph 9 mph 58.3% 0.00 in 1018 W/m2
12:54 84 °F 67.7 °F 30.02 in North 9.5 mph 13 mph 58.1% 0.00 in 970 W/m2
12:59 84 °F 67.5 °F 30.02 in North 10.4 mph 13 mph 57.6% 0.00 in 988 W/m2
13:03 84.3 °F 67.8 °F 30.02 in NNE 9.6 mph 12 mph 57.9% 0.00 in 934 W/m2
13:09 84.3 °F 67.3 °F 30.02 in North 11.7 mph 6.9 mph 56.8% 0.00 in 801 W/m2
13:14 83.3 °F 66.4 °F 30.02 in NE 9.2 mph 13 mph 56.8% 0.00 in 272 W/m2
13:19 82.5 °F 65.9 °F 30.02 in ENE 7 mph 3.6 mph 57.3% 0.00 in 250 W/m2
13:24 82.1 °F 65.3 °F 30.02 in ENE 7 mph 7 mph 57% 0.00 in 254 W/m2
13:27 81.9 °F 65.4 °F 30.02 in ENE 5.7 mph 9 mph 57.6% 0.00 in 261 W/m2
13:34 81.8 °F 65.4 °F 30.02 in NNE 6.3 mph 8 mph 57.6% 0.00 in 642 W/m2
13:39 82.4 °F 65.8 °F 30.02 in NNE 6 mph 7 mph 57.3% 0.00 in 1008 W/m2
13:44 83.6 °F 65.6 °F 30.01 in NNE 7.4 mph 7 mph 54.9% 0.00 in 964 W/m2
13:49 84.3 °F 65.3 °F 30.01 in NNE 7.8 mph 8 mph 53.2% 0.00 in 936 W/m2
13:54 84.4 °F 65.7 °F 30.01 in NNE 7.4 mph 10 mph 53.5% 0.00 in 909 W/m2
13:59 84.6 °F 64.9 °F 30.01 in North 9.5 mph 8 mph 51.8% 0.00 in 886 W/m2
14:04 84.8 °F 65.4 °F 30.01 in North 6.9 mph 4.7 mph 52.3% 0.00 in 883 W/m2
14:09 85.2 °F 65.7 °F 30.01 in North 5 mph 6 mph 52.2% 0.00 in 900 W/m2
14:14 85.5 °F 65.6 °F 30.00 in North 4.5 mph 7 mph 51.5% 0.00 in 916 W/m2
14:19 85.3 °F 65.1 °F 30.00 in North 4.9 mph 6 mph 51% 0.00 in 930 W/m2
14:24 85.8 °F 66.2 °F 30.00 in North 7.8 mph 6.7 mph 52% 0.00 in 375 W/m2
14:29 85.7 °F 65.3 °F 30.00 in NNE 5.9 mph 12 mph 50.8% 0.00 in 232 W/m2
14:34 84.9 °F 65.3 °F 30.00 in NNE 5.3 mph 8 mph 52% 0.00 in 324 W/m2
14:39 84.6 °F 65.7 °F 29.99 in NNE 6.4 mph 6 mph 53.3% 0.00 in 848 W/m2
14:44 85 °F 66.1 °F 29.99 in NNE 4.8 mph 8 mph 53.2% 0.00 in 828 W/m2
14:49 85.6 °F 65.4 °F 29.99 in NNE 6 mph 8 mph 51% 0.00 in 844 W/m2
14:54 85.3 °F 64.6 °F 29.99 in ENE 10.1 mph 6 mph 50.1% 0.00 in 867 W/m2
14:59 85.1 °F 65.5 °F 29.99 in ENE 5.5 mph 12 mph 52% 0.00 in 267 W/m2
15:04 84.6 °F 65.2 °F 29.99 in NNE 5.9 mph 6 mph 52.4% 0.00 in 791 W/m2
15:09 84.7 °F 65.6 °F 29.99 in North 6.4 mph 8 mph 52.8% 0.00 in 772 W/m2
15:14 85.4 °F 65.5 °F 29.98 in NNW 6.8 mph 10 mph 51.4% 0.00 in 758 W/m2
15:19 85.9 °F 65.4 °F 29.99 in North 6.8 mph 9 mph 50.5% 0.00 in 746 W/m2
15:24 86.1 °F 64.6 °F 29.98 in NNE 6.1 mph 7 mph 48.9% 0.00 in 745 W/m2
15:29 85.9 °F 64.5 °F 29.98 in NE 8.6 mph 10 mph 49% 0.00 in 744 W/m2
15:34 85.9 °F 64.7 °F 29.98 in ENE 7.5 mph 13 mph 49.4% 0.00 in 716 W/m2
15:39 86.4 °F 65 °F 29.98 in NNE 7 mph 8 mph 49.1% 0.00 in 701 W/m2
15:44 86.9 °F 65.7 °F 29.98 in NNE 8.4 mph 9 mph 49.3% 0.00 in 704 W/m2
15:49 87.2 °F 65.6 °F 29.97 in NE 5.9 mph 9 mph 48.9% 0.00 in 680 W/m2
15:54 87.4 °F 65.9 °F 29.97 in NE 7.1 mph 7 mph 49% 0.00 in 625 W/m2
15:59 87.4 °F 65.8 °F 29.97 in North 7.2 mph 9 mph 48.9% 0.00 in 623 W/m2
16:04 87.4 °F 65.6 °F 29.97 in NNE 8.7 mph 9 mph 48.5% 0.00 in 604 W/m2
16:09 87.4 °F 65.4 °F 29.97 in NNE 8.8 mph 9 mph 48.3% 0.00 in 596 W/m2
16:14 87.3 °F 65.4 °F 29.97 in NNE 6.6 mph 10 mph 48.3% 0.00 in 578 W/m2
16:19 87.4 °F 65.5 °F 29.97 in NNE 7.6 mph 8 mph 48.3% 0.00 in 574 W/m2
16:24 87.6 °F 65.6 °F 29.97 in NNE 7.4 mph 9 mph 48.2% 0.00 in 561 W/m2
16:29 87.4 °F 65.4 °F 29.97 in ENE 7 mph 3.4 mph 48.3% 0.00 in 550 W/m2
16:34 87.2 °F 65 °F 29.97 in NE 8.7 mph 8 mph 47.9% 0.00 in 572 W/m2
16:39 86.8 °F 64.9 °F 29.97 in NNE 8.7 mph 12 mph 48.2% 0.00 in 474 W/m2
16:44 86.2 °F 64.6 °F 29.97 in NNE 6.1 mph 12 mph 48.7% 0.00 in 155 W/m2
16:49 85.5 °F 64.1 °F 29.97 in North 5.4 mph 8 mph 49% 0.00 in 460 W/m2
16:54 85.4 °F 64.1 °F 29.97 in NNW 6 mph 8 mph 49.1% 0.00 in 451 W/m2
16:59 85.5 °F 63.8 °F 29.97 in NNE 7.5 mph 11 mph 48.5% 0.00 in 400 W/m2
17:04 85.6 °F 64.7 °F 29.97 in NNE 6.3 mph 2.9 mph 49.9% 0.00 in 394 W/m2
17:09 85.7 °F 64.5 °F 29.96 in NNW 8.7 mph 8 mph 49.2% 0.00 in 383 W/m2
17:14 85.7 °F 64.4 °F 29.96 in North 8.3 mph 11 mph 49% 0.00 in 351 W/m2
17:19 85.6 °F 64.9 °F 29.96 in NNE 9.1 mph 4.2 mph 50% 0.00 in 349 W/m2
17:24 85.4 °F 64.5 °F 29.96 in NNE 5.2 mph 8 mph 49.8% 0.00 in 324 W/m2
17:29 85.3 °F 64.8 °F 29.96 in NNW 4.8 mph 7 mph 50.4% 0.00 in 297 W/m2
17:33 85.2 °F 64 °F 29.96 in NW 7.7 mph 7 mph 49.3% 0.00 in 298 W/m2
17:39 85.1 °F 63.9 °F 29.96 in NNE 8.4 mph 10 mph 49.3% 0.00 in 290 W/m2
17:44 84.9 °F 63.7 °F 29.96 in NE 7.4 mph 9 mph 49.2% 0.00 in 248 W/m2
17:49 84.7 °F 63.6 °F 29.96 in NE 7.8 mph 12 mph 49.3% 0.00 in 211 W/m2
17:54 84.5 °F 63.7 °F 29.96 in NNE 6.4 mph 8 mph 49.8% 0.00 in 178 W/m2
17:59 84.3 °F 63.2 °F 29.96 in North 7.7 mph 11 mph 49.2% 0.00 in 178 W/m2
18:04 84 °F 63.1 °F 29.96 in NNE 5 mph 11 mph 49.5% 0.00 in 174 W/m2
18:09 83.8 °F 63.3 °F 29.96 in NE 5.2 mph 6 mph 50.3% 0.00 in 167 W/m2
18:14 83.8 °F 64.5 °F 29.96 in NNW 4.5 mph 7 mph 52.3% 0.00 in 161 W/m2
18:19 83.7 °F 63.9 °F 29.96 in NW 6.1 mph 6 mph 51.5% 0.00 in 139 W/m2
18:24 83.6 °F 63.6 °F 29.96 in NNW 6.7 mph 7 mph 51.2% 0.00 in 119 W/m2
18:29 83.3 °F 63.8 °F 29.96 in NW 5.2 mph 11 mph 52% 0.00 in 101 W/m2
18:34 82.9 °F 63.3 °F 29.96 in NW 4.9 mph 2.9 mph 51.6% 0.00 in 86 W/m2
18:39 82.7 °F 63.3 °F 29.96 in NNW 2.8 mph 6 mph 52% 0.00 in 72 W/m2
18:44 82.3 °F 63.2 °F 29.96 in NNW 3.3 mph 4 mph 52.5% 0.00 in 50 W/m2
18:49 82 °F 63.2 °F 29.96 in NNW 5 mph 4 mph 53% 0.00 in 39 W/m2
18:54 81.6 °F 63 °F 29.97 in NNW 4.1 mph 6 mph 53.5% 0.00 in 32 W/m2
18:59 81.1 °F 62.8 °F 29.97 in NNW 4.7 mph 5 mph 53.7% 0.00 in 26 W/m2
19:03 80.8 °F 62.6 °F 29.97 in North 4.6 mph 6 mph 54% 0.00 in 23 W/m2
19:09 80.5 °F 62.3 °F 29.97 in NNW 4.3 mph 6 mph 54% 0.00 in 19 W/m2
19:14 80.3 °F 62.4 °F 29.97 in North 4.3 mph 6 mph 54.5% 0.00 in 15 W/m2
19:19 80 °F 62.4 °F 29.97 in North 5.5 mph 5 mph 55% 0.00 in 12 W/m2
19:24 79.7 °F 62.1 °F 29.97 in North 6 mph 7 mph 55% 0.00 in 9 W/m2
19:29 79.4 °F 61.9 °F 29.97 in North 5.2 mph 7 mph 55% 0.00 in 8 W/m2
19:34 79.2 °F 61.7 °F 29.97 in North 5.7 mph 6 mph 55% 0.00 in 6 W/m2
19:39 79 °F 61.4 °F 29.97 in North 5.8 mph 7 mph 55% 0.00 in 4 W/m2
19:43 78.8 °F 61.3 °F 29.97 in North 3.8 mph 7 mph 55% 0.00 in 2 W/m2
19:49 78.5 °F 61.6 °F 29.97 in North 2.9 mph 5 mph 56.2% 0.00 in 1 W/m2
19:54 78.3 °F 61.8 °F 29.97 in North 2.3 mph 4 mph 57% 0.00 in 0 W/m2
19:59 78.1 °F 62 °F 29.97 in NNE 0.3 mph 3 mph 57.7% 0.00 in 0 W/m2
20:04 77.9 °F 62.3 °F 29.97 in NNE 1 mph 0.4 mph 58.9% 0.00 in 0 W/m2
20:08 77.6 °F 62.2 °F 29.97 in North 0.9 mph 1 mph 59.2% 0.00 in 0 W/m2
20:14 77.1 °F 62.4 °F 29.97 in SW 2.5 mph 2 mph 60.7% 0.00 in 0 W/m2
20:19 76.5 °F 62.5 °F 29.97 in SSW 2.8 mph 3 mph 62% 0.00 in 0 W/m2
20:24 76 °F 62 °F 29.98 in South 3.3 mph 3 mph 61.7% 0.00 in 0 W/m2
20:29 75.7 °F 62.2 °F 29.98 in South 2 mph 3 mph 63.1% 0.00 in 0 W/m2
20:34 75.4 °F 62.4 °F 29.98 in SSW 1.8 mph 2 mph 64.1% 0.00 in 0 W/m2
20:39 74.9 °F 62.4 °F 29.98 in SSW 3.2 mph 3 mph 65% 0.00 in 0 W/m2
20:44 74.3 °F 62.7 °F 29.98 in SSW 2.8 mph 2.7 mph 67.1% 0.00 in 0 W/m2
20:49 74 °F 62.5 °F 29.99 in WSW 2.9 mph 4 mph 67.1% 0.00 in 0 W/m2
20:54 73.8 °F 62.1 °F 29.99 in West 2.9 mph 3 mph 67% 0.00 in 0 W/m2
20:58 73.6 °F 61.9 °F 29.99 in West 2.7 mph 4 mph 67% 0.00 in 0 W/m2
Knjazevac, Serbia
Compliments of Weather Underground - 2 mb